sensor_id;sensor_type;location;lat;lon;timestamp;P1;durP1;ratioP1;P2;durP2;ratioP2
25948;SDS011;13961;51.178;4.448;2022-12-07T00:01:11;15.23;;;7.85;;
25948;SDS011;13961;51.178;4.448;2022-12-07T00:03:39;15.45;;;7.78;;
25948;SDS011;13961;51.178;4.448;2022-12-07T00:06:07;13.07;;;7.57;;
25948;SDS011;13961;51.178;4.448;2022-12-07T00:08:36;16.70;;;7.97;;
25948;SDS011;13961;51.178;4.448;2022-12-07T00:11:03;16.30;;;7.53;;
25948;SDS011;13961;51.178;4.448;2022-12-07T00:13:30;16.35;;;7.63;;
25948;SDS011;13961;51.178;4.448;2022-12-07T00:16:00;14.88;;;8.05;;
25948;SDS011;13961;51.178;4.448;2022-12-07T00:18:34;17.05;;;8.20;;
25948;SDS011;13961;51.178;4.448;2022-12-07T00:21:04;19.30;;;8.25;;
25948;SDS011;13961;51.178;4.448;2022-12-07T00:23:33;15.48;;;8.43;;
25948;SDS011;13961;51.178;4.448;2022-12-07T00:26:06;15.68;;;8.27;;
25948;SDS011;13961;51.178;4.448;2022-12-07T00:28:33;16.15;;;8.05;;
25948;SDS011;13961;51.178;4.448;2022-12-07T00:31:07;17.73;;;8.95;;
25948;SDS011;13961;51.178;4.448;2022-12-07T00:33:36;18.25;;;8.52;;
25948;SDS011;13961;51.178;4.448;2022-12-07T00:36:04;17.13;;;8.75;;
25948;SDS011;13961;51.178;4.448;2022-12-07T00:38:33;18.50;;;8.63;;
25948;SDS011;13961;51.178;4.448;2022-12-07T00:41:01;16.35;;;8.48;;
25948;SDS011;13961;51.178;4.448;2022-12-07T00:43:29;13.25;;;8.30;;
25948;SDS011;13961;51.178;4.448;2022-12-07T00:45:56;21.15;;;9.50;;
25948;SDS011;13961;51.178;4.448;2022-12-07T00:48:23;19.40;;;9.55;;
25948;SDS011;13961;51.178;4.448;2022-12-07T00:50:51;17.33;;;9.27;;
25948;SDS011;13961;51.178;4.448;2022-12-07T00:53:17;16.73;;;9.35;;
25948;SDS011;13961;51.178;4.448;2022-12-07T00:55:43;15.35;;;8.70;;
25948;SDS011;13961;51.178;4.448;2022-12-07T00:58:10;17.60;;;9.27;;
25948;SDS011;13961;51.178;4.448;2022-12-07T01:00:36;17.48;;;8.55;;
25948;SDS011;13961;51.178;4.448;2022-12-07T01:03:04;15.55;;;8.75;;
25948;SDS011;13961;51.178;4.448;2022-12-07T01:05:31;19.25;;;9.68;;
25948;SDS011;13961;51.178;4.448;2022-12-07T01:07:57;20.70;;;8.32;;
25948;SDS011;13961;51.178;4.448;2022-12-07T01:10:24;16.63;;;8.15;;
25948;SDS011;13961;51.178;4.448;2022-12-07T01:12:50;16.42;;;8.45;;
25948;SDS011;13961;51.178;4.448;2022-12-07T01:15:17;13.73;;;7.85;;
25948;SDS011;13961;51.178;4.448;2022-12-07T01:17:43;14.80;;;8.52;;
25948;SDS011;13961;51.178;4.448;2022-12-07T01:20:11;13.73;;;7.68;;
25948;SDS011;13961;51.178;4.448;2022-12-07T01:22:40;15.75;;;8.55;;
25948;SDS011;13961;51.178;4.448;2022-12-07T01:25:08;17.45;;;9.00;;
25948;SDS011;13961;51.178;4.448;2022-12-07T01:27:35;14.73;;;8.52;;
25948;SDS011;13961;51.178;4.448;2022-12-07T01:30:02;18.88;;;8.55;;
25948;SDS011;13961;51.178;4.448;2022-12-07T01:32:29;15.25;;;9.20;;
25948;SDS011;13961;51.178;4.448;2022-12-07T01:34:55;19.17;;;9.00;;
25948;SDS011;13961;51.178;4.448;2022-12-07T01:37:21;19.92;;;8.90;;
25948;SDS011;13961;51.178;4.448;2022-12-07T01:39:52;20.70;;;9.30;;
25948;SDS011;13961;51.178;4.448;2022-12-07T01:42:18;17.85;;;9.65;;
25948;SDS011;13961;51.178;4.448;2022-12-07T01:47:45;18.67;;;8.95;;
25948;SDS011;13961;51.178;4.448;2022-12-07T01:50:16;18.85;;;9.43;;
25948;SDS011;13961;51.178;4.448;2022-12-07T01:52:42;16.85;;;9.52;;
25948;SDS011;13961;51.178;4.448;2022-12-07T01:55:13;17.70;;;9.55;;
25948;SDS011;13961;51.178;4.448;2022-12-07T01:57:41;19.20;;;8.70;;
25948;SDS011;13961;51.178;4.448;2022-12-07T02:00:11;16.10;;;8.65;;
25948;SDS011;13961;51.178;4.448;2022-12-07T02:02:51;16.58;;;8.90;;
25948;SDS011;13961;51.178;4.448;2022-12-07T02:05:19;20.88;;;8.77;;
25948;SDS011;13961;51.178;4.448;2022-12-07T02:07:47;17.13;;;9.07;;
25948;SDS011;13961;51.178;4.448;2022-12-07T02:10:23;20.05;;;9.68;;
25948;SDS011;13961;51.178;4.448;2022-12-07T02:13:01;19.42;;;9.70;;
25948;SDS011;13961;51.178;4.448;2022-12-07T02:15:38;19.27;;;9.57;;
25948;SDS011;13961;51.178;4.448;2022-12-07T02:18:16;18.50;;;10.13;;
25948;SDS011;13961;51.178;4.448;2022-12-07T02:23:50;18.75;;;9.65;;
25948;SDS011;13961;51.178;4.448;2022-12-07T02:29:20;14.95;;;8.30;;
25948;SDS011;13961;51.178;4.448;2022-12-07T02:32:00;22.75;;;9.40;;
25948;SDS011;13961;51.178;4.448;2022-12-07T02:34:39;13.52;;;8.05;;
25948;SDS011;13961;51.178;4.448;2022-12-07T02:37:26;18.35;;;8.40;;
25948;SDS011;13961;51.178;4.448;2022-12-07T02:40:01;15.50;;;8.82;;
25948;SDS011;13961;51.178;4.448;2022-12-07T02:42:53;18.38;;;9.45;;
25948;SDS011;13961;51.178;4.448;2022-12-07T02:45:26;18.25;;;9.10;;
25948;SDS011;13961;51.178;4.448;2022-12-07T02:47:55;20.15;;;10.40;;
25948;SDS011;13961;51.178;4.448;2022-12-07T02:50:23;15.07;;;9.18;;
25948;SDS011;13961;51.178;4.448;2022-12-07T02:52:50;17.55;;;9.63;;
25948;SDS011;13961;51.178;4.448;2022-12-07T02:55:17;18.17;;;9.38;;
25948;SDS011;13961;51.178;4.448;2022-12-07T03:01:03;18.15;;;9.23;;
25948;SDS011;13961;51.178;4.448;2022-12-07T03:03:30;17.33;;;8.50;;
25948;SDS011;13961;51.178;4.448;2022-12-07T03:08:46;15.60;;;7.82;;
25948;SDS011;13961;51.178;4.448;2022-12-07T03:11:22;14.80;;;8.07;;
25948;SDS011;13961;51.178;4.448;2022-12-07T03:14:04;18.58;;;8.23;;
25948;SDS011;13961;51.178;4.448;2022-12-07T03:16:55;16.25;;;7.47;;
25948;SDS011;13961;51.178;4.448;2022-12-07T03:19:41;16.05;;;6.63;;
25948;SDS011;13961;51.178;4.448;2022-12-07T03:22:10;14.65;;;7.03;;
25948;SDS011;13961;51.178;4.448;2022-12-07T03:24:39;12.98;;;6.97;;
25948;SDS011;13961;51.178;4.448;2022-12-07T03:27:13;14.18;;;7.38;;
25948;SDS011;13961;51.178;4.448;2022-12-07T03:29:44;18.63;;;7.03;;
25948;SDS011;13961;51.178;4.448;2022-12-07T03:32:23;11.73;;;6.93;;
25948;SDS011;13961;51.178;4.448;2022-12-07T03:42:34;12.20;;;6.40;;
25948;SDS011;13961;51.178;4.448;2022-12-07T03:45:00;12.70;;;5.82;;
25948;SDS011;13961;51.178;4.448;2022-12-07T03:47:29;12.38;;;5.72;;
25948;SDS011;13961;51.178;4.448;2022-12-07T03:50:06;18.95;;;6.65;;
25948;SDS011;13961;51.178;4.448;2022-12-07T03:52:47;12.45;;;5.25;;
25948;SDS011;13961;51.178;4.448;2022-12-07T03:55:32;14.25;;;4.97;;
25948;SDS011;13961;51.178;4.448;2022-12-07T03:58:05;11.13;;;4.90;;
25948;SDS011;13961;51.178;4.448;2022-12-07T04:00:34;8.70;;;4.80;;
25948;SDS011;13961;51.178;4.448;2022-12-07T04:03:01;10.02;;;4.68;;
25948;SDS011;13961;51.178;4.448;2022-12-07T04:05:27;10.65;;;4.80;;
25948;SDS011;13961;51.178;4.448;2022-12-07T04:07:53;6.60;;;3.92;;
25948;SDS011;13961;51.178;4.448;2022-12-07T04:10:19;9.07;;;4.32;;
25948;SDS011;13961;51.178;4.448;2022-12-07T04:15:13;9.25;;;4.80;;
25948;SDS011;13961;51.178;4.448;2022-12-07T04:20:10;7.13;;;4.05;;
25948;SDS011;13961;51.178;4.448;2022-12-07T04:25:06;8.80;;;4.43;;
25948;SDS011;13961;51.178;4.448;2022-12-07T04:30:04;14.35;;;4.45;;
25948;SDS011;13961;51.178;4.448;2022-12-07T04:32:30;10.43;;;4.60;;
25948;SDS011;13961;51.178;4.448;2022-12-07T04:34:56;8.88;;;4.35;;
25948;SDS011;13961;51.178;4.448;2022-12-07T04:37:22;11.25;;;4.63;;
25948;SDS011;13961;51.178;4.448;2022-12-07T04:39:48;13.15;;;4.55;;
25948;SDS011;13961;51.178;4.448;2022-12-07T04:45:02;8.00;;;4.15;;
25948;SDS011;13961;51.178;4.448;2022-12-07T04:50:26;9.73;;;4.65;;
25948;SDS011;13961;51.178;4.448;2022-12-07T04:52:53;12.90;;;5.55;;
25948;SDS011;13961;51.178;4.448;2022-12-07T04:55:34;14.57;;;4.82;;
25948;SDS011;13961;51.178;4.448;2022-12-07T04:58:03;9.95;;;4.68;;
25948;SDS011;13961;51.178;4.448;2022-12-07T05:00:31;9.93;;;4.72;;
25948;SDS011;13961;51.178;4.448;2022-12-07T05:05:29;14.40;;;5.13;;
25948;SDS011;13961;51.178;4.448;2022-12-07T05:07:58;13.93;;;5.28;;
25948;SDS011;13961;51.178;4.448;2022-12-07T05:10:27;10.30;;;5.05;;
25948;SDS011;13961;51.178;4.448;2022-12-07T05:12:53;13.13;;;5.10;;
25948;SDS011;13961;51.178;4.448;2022-12-07T05:15:19;12.50;;;4.82;;
25948;SDS011;13961;51.178;4.448;2022-12-07T05:17:48;8.32;;;4.88;;
25948;SDS011;13961;51.178;4.448;2022-12-07T05:20:14;8.20;;;4.72;;
25948;SDS011;13961;51.178;4.448;2022-12-07T05:22:40;13.27;;;4.80;;
25948;SDS011;13961;51.178;4.448;2022-12-07T05:25:06;12.40;;;5.53;;
25948;SDS011;13961;51.178;4.448;2022-12-07T05:27:33;8.27;;;5.03;;
25948;SDS011;13961;51.178;4.448;2022-12-07T05:29:59;11.95;;;5.15;;
25948;SDS011;13961;51.178;4.448;2022-12-07T05:32:25;14.38;;;4.95;;
25948;SDS011;13961;51.178;4.448;2022-12-07T05:34:51;12.50;;;5.28;;
25948;SDS011;13961;51.178;4.448;2022-12-07T05:39:49;10.55;;;5.20;;
25948;SDS011;13961;51.178;4.448;2022-12-07T05:42:18;12.63;;;5.18;;
25948;SDS011;13961;51.178;4.448;2022-12-07T05:44:46;12.77;;;5.35;;
25948;SDS011;13961;51.178;4.448;2022-12-07T05:47:14;11.95;;;5.60;;
25948;SDS011;13961;51.178;4.448;2022-12-07T05:49:42;12.55;;;5.28;;
25948;SDS011;13961;51.178;4.448;2022-12-07T05:52:08;11.45;;;5.40;;
25948;SDS011;13961;51.178;4.448;2022-12-07T05:54:34;10.48;;;5.25;;
25948;SDS011;13961;51.178;4.448;2022-12-07T05:57:00;12.48;;;5.68;;
25948;SDS011;13961;51.178;4.448;2022-12-07T05:59:29;11.90;;;6.07;;
25948;SDS011;13961;51.178;4.448;2022-12-07T06:01:58;13.45;;;6.07;;
25948;SDS011;13961;51.178;4.448;2022-12-07T06:04:29;11.75;;;5.72;;
25948;SDS011;13961;51.178;4.448;2022-12-07T06:06:58;15.05;;;6.43;;
25948;SDS011;13961;51.178;4.448;2022-12-07T06:09:25;10.80;;;4.85;;
25948;SDS011;13961;51.178;4.448;2022-12-07T06:11:55;12.00;;;4.65;;
25948;SDS011;13961;51.178;4.448;2022-12-07T06:14:40;9.68;;;4.78;;
25948;SDS011;13961;51.178;4.448;2022-12-07T06:17:08;12.95;;;3.83;;
25948;SDS011;13961;51.178;4.448;2022-12-07T06:19:35;8.85;;;4.18;;
25948;SDS011;13961;51.178;4.448;2022-12-07T06:22:02;12.95;;;4.35;;
25948;SDS011;13961;51.178;4.448;2022-12-07T06:24:29;9.68;;;4.20;;
25948;SDS011;13961;51.178;4.448;2022-12-07T06:26:57;12.15;;;3.95;;
25948;SDS011;13961;51.178;4.448;2022-12-07T06:29:23;11.30;;;3.67;;
25948;SDS011;13961;51.178;4.448;2022-12-07T06:31:49;7.45;;;3.05;;
25948;SDS011;13961;51.178;4.448;2022-12-07T06:34:16;13.48;;;3.03;;
25948;SDS011;13961;51.178;4.448;2022-12-07T06:36:44;16.48;;;3.78;;
25948;SDS011;13961;51.178;4.448;2022-12-07T06:39:10;16.15;;;3.75;;
25948;SDS011;13961;51.178;4.448;2022-12-07T06:41:37;5.57;;;2.83;;
25948;SDS011;13961;51.178;4.448;2022-12-07T06:44:09;6.55;;;2.78;;
25948;SDS011;13961;51.178;4.448;2022-12-07T06:46:35;8.07;;;3.20;;
25948;SDS011;13961;51.178;4.448;2022-12-07T06:49:02;9.52;;;3.60;;
25948;SDS011;13961;51.178;4.448;2022-12-07T06:51:28;6.35;;;3.05;;
25948;SDS011;13961;51.178;4.448;2022-12-07T06:53:55;5.93;;;3.05;;
25948;SDS011;13961;51.178;4.448;2022-12-07T06:56:22;11.20;;;3.50;;
25948;SDS011;13961;51.178;4.448;2022-12-07T06:58:48;7.47;;;2.92;;
25948;SDS011;13961;51.178;4.448;2022-12-07T07:01:17;10.13;;;3.30;;
25948;SDS011;13961;51.178;4.448;2022-12-07T07:03:44;7.10;;;3.38;;
25948;SDS011;13961;51.178;4.448;2022-12-07T07:06:11;8.63;;;3.60;;
25948;SDS011;13961;51.178;4.448;2022-12-07T07:08:37;9.20;;;3.88;;
25948;SDS011;13961;51.178;4.448;2022-12-07T07:11:04;7.18;;;3.78;;
25948;SDS011;13961;51.178;4.448;2022-12-07T07:13:30;9.27;;;3.90;;
25948;SDS011;13961;51.178;4.448;2022-12-07T07:15:56;7.20;;;4.18;;
25948;SDS011;13961;51.178;4.448;2022-12-07T07:18:22;10.13;;;4.10;;
25948;SDS011;13961;51.178;4.448;2022-12-07T07:20:48;10.23;;;3.92;;
25948;SDS011;13961;51.178;4.448;2022-12-07T07:23:15;13.82;;;4.60;;
25948;SDS011;13961;51.178;4.448;2022-12-07T07:25:42;11.15;;;4.47;;
25948;SDS011;13961;51.178;4.448;2022-12-07T07:28:09;12.98;;;4.95;;
25948;SDS011;13961;51.178;4.448;2022-12-07T07:30:35;11.70;;;5.13;;
25948;SDS011;13961;51.178;4.448;2022-12-07T07:33:01;11.93;;;5.97;;
25948;SDS011;13961;51.178;4.448;2022-12-07T07:35:28;10.13;;;5.18;;
25948;SDS011;13961;51.178;4.448;2022-12-07T07:37:55;12.00;;;5.68;;
25948;SDS011;13961;51.178;4.448;2022-12-07T07:40:24;13.23;;;5.95;;
25948;SDS011;13961;51.178;4.448;2022-12-07T07:42:51;16.00;;;6.05;;
25948;SDS011;13961;51.178;4.448;2022-12-07T07:45:18;18.42;;;6.13;;
25948;SDS011;13961;51.178;4.448;2022-12-07T07:47:44;16.30;;;6.10;;
25948;SDS011;13961;51.178;4.448;2022-12-07T07:50:12;13.25;;;6.05;;
25948;SDS011;13961;51.178;4.448;2022-12-07T07:52:38;12.75;;;6.65;;
25948;SDS011;13961;51.178;4.448;2022-12-07T07:55:05;12.48;;;6.78;;
25948;SDS011;13961;51.178;4.448;2022-12-07T07:57:33;12.65;;;7.20;;
25948;SDS011;13961;51.178;4.448;2022-12-07T07:59:59;18.23;;;7.25;;
25948;SDS011;13961;51.178;4.448;2022-12-07T08:02:26;16.65;;;7.15;;
25948;SDS011;13961;51.178;4.448;2022-12-07T08:04:54;13.68;;;6.78;;
25948;SDS011;13961;51.178;4.448;2022-12-07T08:07:20;18.10;;;7.75;;
25948;SDS011;13961;51.178;4.448;2022-12-07T08:09:46;22.35;;;7.40;;
25948;SDS011;13961;51.178;4.448;2022-12-07T08:12:12;17.83;;;7.15;;
25948;SDS011;13961;51.178;4.448;2022-12-07T08:14:40;10.25;;;6.50;;
25948;SDS011;13961;51.178;4.448;2022-12-07T08:17:07;17.08;;;7.00;;
25948;SDS011;13961;51.178;4.448;2022-12-07T08:19:34;13.75;;;7.32;;
25948;SDS011;13961;51.178;4.448;2022-12-07T08:21:59;13.48;;;7.15;;
25948;SDS011;13961;51.178;4.448;2022-12-07T08:24:26;17.75;;;7.45;;
25948;SDS011;13961;51.178;4.448;2022-12-07T08:26:54;18.15;;;7.45;;
25948;SDS011;13961;51.178;4.448;2022-12-07T08:29:23;20.88;;;7.38;;
25948;SDS011;13961;51.178;4.448;2022-12-07T08:31:50;15.18;;;7.35;;
25948;SDS011;13961;51.178;4.448;2022-12-07T08:34:19;14.07;;;6.53;;
25948;SDS011;13961;51.178;4.448;2022-12-07T08:39:17;12.68;;;6.00;;
25948;SDS011;13961;51.178;4.448;2022-12-07T08:41:44;12.27;;;5.55;;
25948;SDS011;13961;51.178;4.448;2022-12-07T08:44:10;14.43;;;6.15;;
25948;SDS011;13961;51.178;4.448;2022-12-07T08:46:45;12.18;;;5.78;;
25948;SDS011;13961;51.178;4.448;2022-12-07T08:51:45;16.80;;;5.65;;
25948;SDS011;13961;51.178;4.448;2022-12-07T08:54:12;9.48;;;5.45;;
25948;SDS011;13961;51.178;4.448;2022-12-07T08:56:41;12.25;;;6.10;;
25948;SDS011;13961;51.178;4.448;2022-12-07T08:59:09;11.63;;;4.93;;
25948;SDS011;13961;51.178;4.448;2022-12-07T09:01:35;8.73;;;5.05;;
25948;SDS011;13961;51.178;4.448;2022-12-07T09:04:02;13.45;;;5.40;;
25948;SDS011;13961;51.178;4.448;2022-12-07T09:06:28;14.88;;;5.20;;
25948;SDS011;13961;51.178;4.448;2022-12-07T09:08:58;11.57;;;5.30;;
25948;SDS011;13961;51.178;4.448;2022-12-07T09:11:25;14.45;;;6.13;;
25948;SDS011;13961;51.178;4.448;2022-12-07T09:13:51;10.10;;;5.55;;
25948;SDS011;13961;51.178;4.448;2022-12-07T09:16:17;13.48;;;5.78;;
25948;SDS011;13961;51.178;4.448;2022-12-07T09:18:45;13.50;;;6.18;;
25948;SDS011;13961;51.178;4.448;2022-12-07T09:21:11;10.90;;;5.55;;
25948;SDS011;13961;51.178;4.448;2022-12-07T09:23:38;10.07;;;5.07;;
25948;SDS011;13961;51.178;4.448;2022-12-07T09:28:35;13.40;;;5.35;;
25948;SDS011;13961;51.178;4.448;2022-12-07T09:31:05;12.70;;;5.20;;
25948;SDS011;13961;51.178;4.448;2022-12-07T09:33:31;12.25;;;5.45;;
25948;SDS011;13961;51.178;4.448;2022-12-07T09:36:00;17.52;;;5.68;;
25948;SDS011;13961;51.178;4.448;2022-12-07T09:38:29;12.80;;;6.28;;
25948;SDS011;13961;51.178;4.448;2022-12-07T09:40:58;9.48;;;5.50;;
25948;SDS011;13961;51.178;4.448;2022-12-07T09:43:35;14.60;;;6.30;;
25948;SDS011;13961;51.178;4.448;2022-12-07T09:46:05;18.50;;;6.50;;
25948;SDS011;13961;51.178;4.448;2022-12-07T09:48:36;13.48;;;5.28;;
25948;SDS011;13961;51.178;4.448;2022-12-07T09:51:26;12.82;;;5.07;;
25948;SDS011;13961;51.178;4.448;2022-12-07T09:53:52;16.30;;;5.97;;
25948;SDS011;13961;51.178;4.448;2022-12-07T09:56:19;13.60;;;5.28;;
25948;SDS011;13961;51.178;4.448;2022-12-07T09:58:58;11.30;;;5.30;;
25948;SDS011;13961;51.178;4.448;2022-12-07T10:01:32;11.57;;;4.47;;
25948;SDS011;13961;51.178;4.448;2022-12-07T10:06:41;7.20;;;2.78;;
25948;SDS011;13961;51.178;4.448;2022-12-07T10:09:13;6.05;;;3.83;;
25948;SDS011;13961;51.178;4.448;2022-12-07T10:14:26;8.20;;;3.67;;
25948;SDS011;13961;51.178;4.448;2022-12-07T10:16:54;9.50;;;4.13;;
25948;SDS011;13961;51.178;4.448;2022-12-07T10:24:29;10.27;;;4.03;;
25948;SDS011;13961;51.178;4.448;2022-12-07T10:26:55;11.20;;;4.35;;
25948;SDS011;13961;51.178;4.448;2022-12-07T10:29:30;8.30;;;3.38;;
25948;SDS011;13961;51.178;4.448;2022-12-07T10:31:59;7.75;;;3.70;;
25948;SDS011;13961;51.178;4.448;2022-12-07T10:37:18;8.10;;;3.30;;
25948;SDS011;13961;51.178;4.448;2022-12-07T10:39:49;5.80;;;3.25;;
25948;SDS011;13961;51.178;4.448;2022-12-07T10:44:49;9.55;;;3.05;;
25948;SDS011;13961;51.178;4.448;2022-12-07T10:53:03;7.72;;;3.20;;
25948;SDS011;13961;51.178;4.448;2022-12-07T11:01:32;10.40;;;3.50;;
25948;SDS011;13961;51.178;4.448;2022-12-07T11:07:06;7.38;;;3.35;;
25948;SDS011;13961;51.178;4.448;2022-12-07T11:09:44;9.38;;;3.25;;
25948;SDS011;13961;51.178;4.448;2022-12-07T11:32:26;9.47;;;3.60;;
25948;SDS011;13961;51.178;4.448;2022-12-07T11:35:13;10.40;;;4.05;;
25948;SDS011;13961;51.178;4.448;2022-12-07T11:40:36;7.90;;;3.72;;
25948;SDS011;13961;51.178;4.448;2022-12-07T11:43:09;8.80;;;3.45;;
25948;SDS011;13961;51.178;4.448;2022-12-07T11:45:37;9.02;;;3.55;;
25948;SDS011;13961;51.178;4.448;2022-12-07T11:48:10;10.13;;;3.53;;
25948;SDS011;13961;51.178;4.448;2022-12-07T11:50:54;12.63;;;2.90;;
25948;SDS011;13961;51.178;4.448;2022-12-07T11:58:39;5.07;;;2.90;;
25948;SDS011;13961;51.178;4.448;2022-12-07T12:04:03;8.95;;;2.15;;
25948;SDS011;13961;51.178;4.448;2022-12-07T12:06:27;8.55;;;2.50;;
25948;SDS011;13961;51.178;4.448;2022-12-07T12:09:03;5.43;;;2.20;;
25948;SDS011;13961;51.178;4.448;2022-12-07T12:17:29;2.88;;;1.38;;
25948;SDS011;13961;51.178;4.448;2022-12-07T12:23:27;2.75;;;1.25;;
25948;SDS011;13961;51.178;4.448;2022-12-07T12:25:41;2.47;;;1.33;;
25948;SDS011;13961;51.178;4.448;2022-12-07T12:28:20;3.72;;;1.50;;
25948;SDS011;13961;51.178;4.448;2022-12-07T12:31:04;4.20;;;1.67;;
25948;SDS011;13961;51.178;4.448;2022-12-07T12:33:30;4.68;;;1.92;;
25948;SDS011;13961;51.178;4.448;2022-12-07T12:38:47;3.42;;;1.52;;
25948;SDS011;13961;51.178;4.448;2022-12-07T12:54:23;2.85;;;1.63;;
25948;SDS011;13961;51.178;4.448;2022-12-07T13:15:34;5.85;;;1.92;;
25948;SDS011;13961;51.178;4.448;2022-12-07T13:18:02;3.75;;;1.70;;
25948;SDS011;13961;51.178;4.448;2022-12-07T13:20:47;8.88;;;1.98;;
25948;SDS011;13961;51.178;4.448;2022-12-07T13:23:18;5.75;;;2.20;;
25948;SDS011;13961;51.178;4.448;2022-12-07T13:28:43;8.18;;;2.92;;
25948;SDS011;13961;51.178;4.448;2022-12-07T13:33:37;6.10;;;2.65;;
25948;SDS011;13961;51.178;4.448;2022-12-07T13:36:04;5.78;;;2.78;;
25948;SDS011;13961;51.178;4.448;2022-12-07T13:39:29;9.30;;;3.30;;
25948;SDS011;13961;51.178;4.448;2022-12-07T13:41:40;5.60;;;3.17;;
25948;SDS011;13961;51.178;4.448;2022-12-07T13:44:11;6.47;;;3.10;;
25948;SDS011;13961;51.178;4.448;2022-12-07T13:49:50;4.72;;;2.30;;
25948;SDS011;13961;51.178;4.448;2022-12-07T13:52:20;2.65;;;1.70;;
25948;SDS011;13961;51.178;4.448;2022-12-07T13:57:30;5.18;;;1.77;;
25948;SDS011;13961;51.178;4.448;2022-12-07T14:00:05;1.25;;;0.90;;
25948;SDS011;13961;51.178;4.448;2022-12-07T14:05:44;1.27;;;0.80;;
25948;SDS011;13961;51.178;4.448;2022-12-07T14:13:50;1.58;;;0.80;;
25948;SDS011;13961;51.178;4.448;2022-12-07T14:15:51;1.80;;;0.82;;
25948;SDS011;13961;51.178;4.448;2022-12-07T14:21:06;1.63;;;0.55;;
25948;SDS011;13961;51.178;4.448;2022-12-07T14:23:35;0.50;;;0.50;;
25948;SDS011;13961;51.178;4.448;2022-12-07T14:26:19;1.25;;;0.90;;
25948;SDS011;13961;51.178;4.448;2022-12-07T14:28:46;2.55;;;1.05;;
25948;SDS011;13961;51.178;4.448;2022-12-07T14:31:17;2.13;;;0.80;;
25948;SDS011;13961;51.178;4.448;2022-12-07T14:33:46;1.17;;;0.85;;
25948;SDS011;13961;51.178;4.448;2022-12-07T14:36:12;3.08;;;0.93;;
25948;SDS011;13961;51.178;4.448;2022-12-07T14:38:39;1.98;;;0.85;;
25948;SDS011;13961;51.178;4.448;2022-12-07T14:41:06;3.15;;;0.90;;
25948;SDS011;13961;51.178;4.448;2022-12-07T14:43:57;1.85;;;0.70;;
25948;SDS011;13961;51.178;4.448;2022-12-07T14:46:24;3.72;;;1.02;;
25948;SDS011;13961;51.178;4.448;2022-12-07T14:48:52;5.30;;;1.25;;
25948;SDS011;13961;51.178;4.448;2022-12-07T14:51:19;2.83;;;1.20;;
25948;SDS011;13961;51.178;4.448;2022-12-07T14:53:50;4.75;;;1.30;;
25948;SDS011;13961;51.178;4.448;2022-12-07T14:56:18;2.35;;;0.80;;
25948;SDS011;13961;51.178;4.448;2022-12-07T14:58:43;4.78;;;1.40;;
25948;SDS011;13961;51.178;4.448;2022-12-07T15:01:09;3.60;;;1.40;;
25948;SDS011;13961;51.178;4.448;2022-12-07T15:03:34;4.57;;;1.60;;
25948;SDS011;13961;51.178;4.448;2022-12-07T15:06:03;1.77;;;1.00;;
25948;SDS011;13961;51.178;4.448;2022-12-07T15:08:29;2.75;;;1.00;;
25948;SDS011;13961;51.178;4.448;2022-12-07T15:10:55;4.68;;;1.40;;
25948;SDS011;13961;51.178;4.448;2022-12-07T15:13:21;3.25;;;1.02;;
25948;SDS011;13961;51.178;4.448;2022-12-07T15:16:07;5.30;;;1.17;;
25948;SDS011;13961;51.178;4.448;2022-12-07T15:18:36;2.38;;;1.25;;
25948;SDS011;13961;51.178;4.448;2022-12-07T15:21:02;4.72;;;1.15;;
25948;SDS011;13961;51.178;4.448;2022-12-07T15:23:30;4.05;;;1.42;;
25948;SDS011;13961;51.178;4.448;2022-12-07T15:25:56;4.63;;;1.23;;
25948;SDS011;13961;51.178;4.448;2022-12-07T15:28:23;5.95;;;1.45;;
25948;SDS011;13961;51.178;4.448;2022-12-07T15:30:50;4.72;;;1.58;;
25948;SDS011;13961;51.178;4.448;2022-12-07T15:33:16;3.78;;;1.58;;
25948;SDS011;13961;51.178;4.448;2022-12-07T15:35:43;6.63;;;1.67;;
25948;SDS011;13961;51.178;4.448;2022-12-07T15:38:09;3.90;;;1.63;;
25948;SDS011;13961;51.178;4.448;2022-12-07T15:40:35;3.58;;;1.65;;
25948;SDS011;13961;51.178;4.448;2022-12-07T15:43:01;2.70;;;1.90;;
25948;SDS011;13961;51.178;4.448;2022-12-07T15:45:27;6.65;;;1.90;;
25948;SDS011;13961;51.178;4.448;2022-12-07T15:47:55;3.55;;;1.55;;
25948;SDS011;13961;51.178;4.448;2022-12-07T15:50:23;5.85;;;2.00;;
25948;SDS011;13961;51.178;4.448;2022-12-07T15:52:50;3.75;;;1.70;;
25948;SDS011;13961;51.178;4.448;2022-12-07T15:55:22;6.25;;;2.00;;
25948;SDS011;13961;51.178;4.448;2022-12-07T15:57:48;4.07;;;1.60;;
25948;SDS011;13961;51.178;4.448;2022-12-07T16:00:14;3.38;;;1.90;;
25948;SDS011;13961;51.178;4.448;2022-12-07T16:02:40;6.78;;;2.20;;
25948;SDS011;13961;51.178;4.448;2022-12-07T16:05:06;4.28;;;2.17;;
25948;SDS011;13961;51.178;4.448;2022-12-07T16:07:32;7.07;;;1.80;;
25948;SDS011;13961;51.178;4.448;2022-12-07T16:09:57;3.63;;;1.98;;
25948;SDS011;13961;51.178;4.448;2022-12-07T16:12:23;5.22;;;2.20;;
25948;SDS011;13961;51.178;4.448;2022-12-07T16:14:56;3.85;;;2.25;;
25948;SDS011;13961;51.178;4.448;2022-12-07T16:17:24;3.67;;;1.90;;
25948;SDS011;13961;51.178;4.448;2022-12-07T16:19:50;7.25;;;2.28;;
25948;SDS011;13961;51.178;4.448;2022-12-07T16:22:19;2.90;;;1.92;;
25948;SDS011;13961;51.178;4.448;2022-12-07T16:24:44;4.63;;;1.80;;
25948;SDS011;13961;51.178;4.448;2022-12-07T16:27:11;9.30;;;1.80;;
25948;SDS011;13961;51.178;4.448;2022-12-07T16:29:37;2.95;;;1.67;;
25948;SDS011;13961;51.178;4.448;2022-12-07T16:32:03;5.55;;;1.80;;
25948;SDS011;13961;51.178;4.448;2022-12-07T16:34:29;4.78;;;1.63;;
25948;SDS011;13961;51.178;4.448;2022-12-07T16:37:02;4.32;;;1.30;;
25948;SDS011;13961;51.178;4.448;2022-12-07T16:39:27;4.57;;;1.48;;
25948;SDS011;13961;51.178;4.448;2022-12-07T16:41:59;5.72;;;1.65;;
25948;SDS011;13961;51.178;4.448;2022-12-07T16:44:26;4.28;;;1.65;;
25948;SDS011;13961;51.178;4.448;2022-12-07T16:46:54;4.05;;;1.60;;
25948;SDS011;13961;51.178;4.448;2022-12-07T16:49:19;5.50;;;1.58;;
25948;SDS011;13961;51.178;4.448;2022-12-07T16:51:45;2.67;;;1.77;;
25948;SDS011;13961;51.178;4.448;2022-12-07T16:54:13;5.18;;;2.13;;
25948;SDS011;13961;51.178;4.448;2022-12-07T16:56:39;3.60;;;1.80;;
25948;SDS011;13961;51.178;4.448;2022-12-07T16:59:05;5.75;;;1.90;;
25948;SDS011;13961;51.178;4.448;2022-12-07T17:01:32;5.95;;;1.88;;
25948;SDS011;13961;51.178;4.448;2022-12-07T17:03:59;4.22;;;1.92;;
25948;SDS011;13961;51.178;4.448;2022-12-07T17:06:26;4.05;;;1.90;;
25948;SDS011;13961;51.178;4.448;2022-12-07T17:08:53;2.50;;;1.77;;
25948;SDS011;13961;51.178;4.448;2022-12-07T17:11:21;2.90;;;1.80;;
25948;SDS011;13961;51.178;4.448;2022-12-07T17:13:57;4.03;;;1.90;;
25948;SDS011;13961;51.178;4.448;2022-12-07T17:16:42;3.55;;;2.13;;
25948;SDS011;13961;51.178;4.448;2022-12-07T17:19:09;3.85;;;2.28;;
25948;SDS011;13961;51.178;4.448;2022-12-07T17:21:36;3.47;;;1.88;;
25948;SDS011;13961;51.178;4.448;2022-12-07T17:24:03;3.38;;;1.90;;
25948;SDS011;13961;51.178;4.448;2022-12-07T17:26:31;19.48;;;9.30;;
25948;SDS011;13961;51.178;4.448;2022-12-07T17:28:58;33.47;;;13.85;;
25948;SDS011;13961;51.178;4.448;2022-12-07T17:31:24;12.13;;;6.78;;
25948;SDS011;13961;51.178;4.448;2022-12-07T17:33:50;6.95;;;2.50;;
25948;SDS011;13961;51.178;4.448;2022-12-07T17:36:18;6.97;;;2.72;;
25948;SDS011;13961;51.178;4.448;2022-12-07T17:38:47;6.30;;;2.40;;
25948;SDS011;13961;51.178;4.448;2022-12-07T17:41:22;4.80;;;1.92;;
25948;SDS011;13961;51.178;4.448;2022-12-07T17:44:08;5.55;;;2.30;;
25948;SDS011;13961;51.178;4.448;2022-12-07T17:46:42;7.57;;;2.80;;
25948;SDS011;13961;51.178;4.448;2022-12-07T17:49:08;8.27;;;2.72;;
25948;SDS011;13961;51.178;4.448;2022-12-07T17:51:34;7.95;;;3.03;;